New Bloomington, Ohio
Current Conditions -  °F | °C
As of 6:53 AM on Thursday 18 Dec 2014 (Local Time) from KMNN Reporting Station
Overcast Overcast  
Wind Chill: -6°   Ceiling: 1800
Heat Index: -3°   Visibility: 10mi
Dew Point: -7°   Wind: 6mph
Humidity: 75%   Direction: 330°NNW
Pressure: 30.23"   Gusts: NA
Location:  40.58°N, 83.32°W
Report Text: KMNN 181153Z AUTO 33005KT 10SM OVC018 M03/M07 A3023 RMK AO2 SLP251 T10281067 11028 21028 53000 TSNO
Loading
Personal Weather Stations






























Interactive Weather Map New forecast layout! Learn more

10-Day Weather Forecast

Advertisements
Track Severe Weather on mobile